createdAt,value
2023-03-31T00:00:24.419Z,75652.44
2023-03-31T00:03:11.776Z,75656.50
2023-03-31T00:05:38.904Z,75664.59
2023-03-31T00:08:07.272Z,75668.66
2023-03-31T00:10:35.148Z,75668.66
2023-03-31T00:13:02.520Z,75680.81
2023-03-31T00:15:29.686Z,75680.81
2023-03-31T00:18:00.588Z,75684.88
2023-03-31T00:20:28.196Z,75680.81
2023-03-31T00:22:57.806Z,75680.81
2023-03-31T00:25:24.892Z,75674.75
2023-03-31T00:27:52.794Z,75672.72
2023-03-31T00:30:20.633Z,75680.81
2023-03-31T00:32:48.180Z,75672.72
2023-03-31T00:35:15.428Z,75664.59
2023-03-31T00:37:43.432Z,75660.56
2023-03-31T00:40:10.921Z,75660.56
2023-03-31T00:42:41.732Z,75662.59
2023-03-31T00:45:14.606Z,75654.47
2023-03-31T00:47:49.213Z,75648.41
2023-03-31T00:50:22.139Z,75652.44
2023-03-31T00:52:57.975Z,75652.44
2023-03-31T00:55:34.548Z,75648.41
2023-03-31T00:58:04.752Z,75652.44
2023-03-31T01:00:31.822Z,75656.50
2023-03-31T01:03:03.705Z,75648.41
2023-03-31T01:05:36.834Z,75650.41
2023-03-31T01:08:06.094Z,75642.31
2023-03-31T01:10:41.964Z,75640.28
2023-03-31T01:13:12.149Z,75640.28
2023-03-31T01:15:39.839Z,75642.31
2023-03-31T01:18:10.065Z,75632.19
2023-03-31T01:20:47.177Z,75636.22
2023-03-31T01:23:39.578Z,75611.91
2023-03-31T01:26:33.741Z,75632.19
2023-03-31T01:29:39.634Z,75632.19
2023-03-31T01:32:37.550Z,75632.19
2023-03-31T01:35:33.856Z,75632.19
2023-03-31T01:38:22.498Z,75632.19
2023-03-31T01:41:14.601Z,75632.19
2023-03-31T01:43:47.425Z,75640.28
2023-03-31T01:46:28.519Z,75644.34
2023-03-31T01:49:04.432Z,75634.22
2023-03-31T01:51:35.031Z,75628.13
2023-03-31T01:54:13.331Z,75644.34
2023-03-31T01:56:52.592Z,75648.41
2023-03-31T01:59:37.000Z,75652.44
2023-03-31T02:02:13.900Z,75644.34
2023-03-31T02:04:50.041Z,75664.59
2023-03-31T02:07:27.712Z,75668.66
2023-03-31T02:10:00.105Z,75664.59
2023-03-31T02:12:31.517Z,75672.72
2023-03-31T02:15:00.770Z,75668.66
2023-03-31T02:17:32.874Z,75676.75
2023-03-31T02:20:07.504Z,75680.81
2023-03-31T02:22:37.966Z,75684.88
2023-03-31T02:25:08.203Z,75688.94
2023-03-31T02:27:39.704Z,75672.72
2023-03-31T02:30:08.589Z,75680.81
2023-03-31T02:32:35.747Z,75684.88
2023-03-31T02:35:03.833Z,75686.91
2023-03-31T02:37:31.714Z,75688.94
2023-03-31T02:40:02.974Z,75684.88
2023-03-31T02:42:30.550Z,75688.94
2023-03-31T02:45:06.300Z,75684.88
2023-03-31T02:47:34.440Z,75680.81
2023-03-31T02:50:03.305Z,75697.03
2023-03-31T02:53:14.025Z,75684.88
2023-03-31T02:55:49.994Z,75692.97
2023-03-31T02:58:47.683Z,75672.72
2023-03-31T03:01:40.448Z,75688.94
2023-03-31T03:04:37.681Z,75701.09
2023-03-31T03:07:46.174Z,75701.09
2023-03-31T03:10:29.035Z,75701.09
2023-03-31T03:13:05.167Z,75709.19
2023-03-31T03:15:37.588Z,75713.25
2023-03-31T03:18:06.658Z,75717.28
2023-03-31T03:20:34.317Z,75713.25
2023-03-31T03:23:01.439Z,75713.25
2023-03-31T03:25:30.364Z,75705.13
2023-03-31T03:27:57.386Z,75713.25
2023-03-31T03:30:24.873Z,75721.34
2023-03-31T03:32:51.867Z,75729.47
2023-03-31T03:35:19.134Z,75729.47
2023-03-31T03:37:45.997Z,75725.41
2023-03-31T03:40:13.364Z,75737.56
2023-03-31T03:42:40.378Z,75739.59
2023-03-31T03:45:08.471Z,75749.72
2023-03-31T03:47:36.267Z,75745.66
2023-03-31T03:50:04.621Z,75770.00
2023-03-31T03:52:32.284Z,75778.09
2023-03-31T03:54:59.609Z,75786.19
2023-03-31T03:57:27.244Z,75786.19
2023-03-31T03:59:54.538Z,75808.50
2023-03-31T04:02:21.696Z,75810.53
2023-03-31T04:04:49.053Z,75820.66
2023-03-31T04:07:16.342Z,75822.69
2023-03-31T04:09:43.590Z,75830.78
2023-03-31T04:12:10.421Z,75838.91
2023-03-31T04:14:37.589Z,75842.94
2023-03-31T04:17:04.665Z,75851.06
2023-03-31T04:19:32.145Z,75859.16
2023-03-31T04:22:02.790Z,75871.31
2023-03-31T04:24:33.866Z,75867.28
2023-03-31T04:27:01.184Z,75875.38
2023-03-31T04:29:28.446Z,75871.31
2023-03-31T04:31:59.482Z,75863.22
2023-03-31T04:34:35.456Z,75855.09
2023-03-31T04:37:04.093Z,75859.16
2023-03-31T04:39:31.365Z,75859.16
2023-03-31T04:41:59.777Z,75863.22
2023-03-31T04:44:27.380Z,75857.13
2023-03-31T04:46:55.145Z,75863.22
2023-03-31T04:49:22.963Z,75867.28
2023-03-31T04:51:50.378Z,75847.00
2023-03-31T04:54:17.787Z,75857.13
2023-03-31T04:56:45.126Z,75847.00
2023-03-31T04:59:12.393Z,75842.94
2023-03-31T05:01:39.338Z,75838.91
2023-03-31T05:04:06.697Z,75828.75
2023-03-31T05:06:33.864Z,75810.53
2023-03-31T05:09:01.157Z,75798.38
2023-03-31T05:11:29.052Z,75788.22
2023-03-31T05:13:56.584Z,75778.09
2023-03-31T05:16:23.540Z,75774.03
2023-03-31T05:18:50.839Z,75757.81
2023-03-31T05:21:20.788Z,75745.66
2023-03-31T05:23:48.689Z,75721.34
2023-03-31T05:26:16.059Z,75721.34
2023-03-31T05:28:44.207Z,75721.34
2023-03-31T05:31:13.092Z,75709.19
2023-03-31T05:33:42.100Z,75709.19
2023-03-31T05:36:15.137Z,75705.13
2023-03-31T05:38:43.684Z,75709.19
2023-03-31T05:41:11.957Z,75707.16
2023-03-31T05:43:40.110Z,75692.97
2023-03-31T05:46:07.576Z,75692.97
2023-03-31T05:48:37.647Z,75688.94
2023-03-31T05:51:04.932Z,75684.88
2023-03-31T05:53:32.413Z,75680.81
2023-03-31T05:56:02.230Z,75668.66
2023-03-31T05:58:29.952Z,75672.72
2023-03-31T06:01:09.450Z,75664.59
2023-03-31T06:03:43.967Z,75652.44
2023-03-31T06:06:13.270Z,75652.44
2023-03-31T06:08:41.351Z,75644.34
2023-03-31T06:11:11.729Z,75640.28
2023-03-31T06:13:39.936Z,75636.22
2023-03-31T06:16:08.064Z,75636.22
2023-03-31T06:18:36.813Z,75626.09
2023-03-31T06:21:05.255Z,75615.97
2023-03-31T06:23:33.888Z,75615.97
2023-03-31T06:26:03.818Z,75611.91
2023-03-31T06:28:31.338Z,75595.69
2023-03-31T06:31:12.629Z,75575.44
2023-03-31T06:33:41.822Z,75563.28
2023-03-31T06:36:10.038Z,75543.00
2023-03-31T06:38:41.539Z,75555.19
2023-03-31T06:41:11.750Z,75551.13
2023-03-31T06:43:39.582Z,75541.00
2023-03-31T06:46:07.132Z,75518.69
2023-03-31T06:48:34.721Z,75538.97
2023-03-31T06:51:04.176Z,75543.00
2023-03-31T06:53:32.027Z,75534.91
2023-03-31T06:55:59.150Z,75526.81
2023-03-31T06:58:28.338Z,75516.66
2023-03-31T07:00:56.918Z,75514.66
2023-03-31T07:03:25.128Z,75502.50
2023-03-31T07:05:53.675Z,75486.28
2023-03-31T07:08:22.025Z,75474.13
2023-03-31T07:10:50.364Z,75470.06
2023-03-31T07:13:18.621Z,75466.00
2023-03-31T07:15:48.747Z,75466.00
2023-03-31T07:18:17.502Z,75459.94
2023-03-31T07:20:49.495Z,75453.84
2023-03-31T07:23:17.373Z,75437.63
2023-03-31T07:25:44.555Z,75445.75
2023-03-31T07:28:12.242Z,75437.63
2023-03-31T07:30:40.761Z,75401.16
2023-03-31T07:33:08.367Z,75362.66
2023-03-31T07:35:39.506Z,75356.59
2023-03-31T07:38:08.445Z,75348.47
2023-03-31T07:40:35.405Z,75344.44
2023-03-31T07:43:02.973Z,75332.28
2023-03-31T07:45:31.212Z,75324.16
2023-03-31T07:47:59.066Z,75336.31
2023-03-31T07:50:26.305Z,75312.00
2023-03-31T07:52:56.148Z,75328.22
2023-03-31T07:55:24.070Z,75332.28
2023-03-31T07:57:51.519Z,75324.16
2023-03-31T08:00:19.327Z,75316.06
2023-03-31T08:02:46.782Z,75320.13
2023-03-31T08:05:18.275Z,75328.22
2023-03-31T08:07:48.167Z,75320.13
2023-03-31T08:10:19.717Z,75307.94
2023-03-31T08:12:47.222Z,75303.91
2023-03-31T08:15:14.226Z,75287.69
2023-03-31T08:17:41.527Z,75299.84
2023-03-31T08:20:10.385Z,75301.88
2023-03-31T08:22:39.058Z,75295.78
2023-03-31T08:25:08.419Z,75299.84
2023-03-31T08:27:37.800Z,75295.78
2023-03-31T08:30:10.523Z,75303.91
2023-03-31T08:32:38.267Z,75303.91
2023-03-31T08:35:05.955Z,75320.13
2023-03-31T08:37:33.430Z,75316.06
2023-03-31T08:40:00.754Z,75307.94
2023-03-31T08:42:39.215Z,75295.78
2023-03-31T08:45:18.194Z,75271.47
2023-03-31T08:47:46.946Z,75255.25
2023-03-31T08:50:21.930Z,75235.00
2023-03-31T08:52:56.048Z,75214.75
2023-03-31T08:55:32.418Z,75184.34
2023-03-31T08:58:33.752Z,75153.94
2023-03-31T09:01:27.417Z,75123.56
2023-03-31T09:04:08.257Z,75097.22
2023-03-31T09:06:49.507Z,75085.06
2023-03-31T09:09:38.958Z,75056.69
2023-03-31T09:12:15.370Z,75044.53
2023-03-31T09:14:56.207Z,75036.44
2023-03-31T09:17:45.167Z,75036.44
2023-03-31T09:20:32.721Z,75056.69
2023-03-31T09:23:26.056Z,75056.69
2023-03-31T09:25:54.295Z,75064.81
2023-03-31T09:28:40.406Z,75052.66
2023-03-31T09:31:20.021Z,75036.44
2023-03-31T09:33:48.409Z,75034.41
2023-03-31T09:36:22.532Z,75012.13
2023-03-31T09:38:50.376Z,75020.22
2023-03-31T09:41:21.727Z,74999.97
2023-03-31T09:43:50.143Z,74991.84
2023-03-31T09:46:29.750Z,74995.91
2023-03-31T09:49:06.270Z,75012.13
2023-03-31T09:51:37.471Z,75066.81
2023-03-31T09:54:33.196Z,75016.16
2023-03-31T09:57:00.610Z,75016.16
2023-03-31T09:59:32.410Z,75010.09
2023-03-31T10:02:19.715Z,74991.84
2023-03-31T10:04:46.933Z,74991.84
2023-03-31T10:07:24.938Z,74971.59
2023-03-31T10:09:54.637Z,74965.53
2023-03-31T10:12:25.993Z,74951.34
2023-03-31T10:15:02.391Z,74935.13
2023-03-31T10:17:30.437Z,74904.72
2023-03-31T10:20:17.565Z,74874.34
2023-03-31T10:22:45.627Z,74874.34
2023-03-31T10:25:28.225Z,74874.34
2023-03-31T10:27:57.149Z,74874.34
2023-03-31T10:30:29.278Z,74872.31
2023-03-31T10:32:56.821Z,74862.19
2023-03-31T10:35:35.139Z,74848.00
2023-03-31T10:38:07.370Z,74874.34
2023-03-31T10:40:35.702Z,74886.50
2023-03-31T10:43:16.551Z,74910.81
2023-03-31T10:45:47.300Z,74914.88
2023-03-31T10:48:29.819Z,74906.75
2023-03-31T10:51:12.815Z,74886.50
2023-03-31T10:53:49.199Z,74862.19
2023-03-31T10:56:49.696Z,74856.09
2023-03-31T10:59:30.555Z,74835.84
2023-03-31T11:02:36.362Z,74821.66
2023-03-31T11:05:03.896Z,74837.88
2023-03-31T11:07:38.400Z,74831.78
2023-03-31T11:10:17.709Z,74805.47
2023-03-31T11:12:55.451Z,74825.72
2023-03-31T11:15:26.956Z,74833.81
2023-03-31T11:18:12.459Z,74825.72
2023-03-31T11:21:14.522Z,74819.63
2023-03-31T11:23:44.600Z,74805.47
2023-03-31T11:26:29.226Z,74807.47
2023-03-31T11:29:04.065Z,74785.19
2023-03-31T11:31:37.500Z,74760.88
2023-03-31T11:34:18.859Z,74769.00
2023-03-31T11:37:07.530Z,74742.66
2023-03-31T11:39:52.718Z,74712.25
2023-03-31T11:43:02.430Z,74694.03
2023-03-31T11:45:34.997Z,74681.88
2023-03-31T11:48:27.333Z,74665.66
2023-03-31T11:50:57.307Z,74663.63
2023-03-31T11:53:32.198Z,74667.69
2023-03-31T11:56:02.409Z,74651.47
2023-03-31T11:58:59.872Z,74641.34
2023-03-31T12:01:42.261Z,74661.59
2023-03-31T12:04:33.854Z,74659.59
2023-03-31T12:07:21.001Z,74635.28
2023-03-31T12:09:53.179Z,74647.44
2023-03-31T12:12:26.740Z,74643.38
2023-03-31T12:15:25.423Z,74623.13
2023-03-31T12:18:29.800Z,74598.81
2023-03-31T12:21:05.950Z,74602.84
2023-03-31T12:23:46.401Z,74606.91
2023-03-31T12:26:46.163Z,74615.00
2023-03-31T12:29:30.267Z,74586.66
2023-03-31T12:32:08.942Z,74566.41
2023-03-31T12:34:46.159Z,74538.03
2023-03-31T12:37:47.509Z,74533.97
2023-03-31T12:41:08.421Z,74538.03
2023-03-31T12:44:00.747Z,74568.41
2023-03-31T12:47:00.138Z,74590.69
2023-03-31T12:49:53.727Z,74580.56
2023-03-31T12:52:37.035Z,74598.81
2023-03-31T12:55:04.946Z,74590.69
2023-03-31T12:57:33.090Z,74574.50
2023-03-31T13:00:11.869Z,74570.44
2023-03-31T13:02:40.347Z,74529.94
2023-03-31T13:05:41.844Z,74513.72
2023-03-31T13:08:09.283Z,74511.69
2023-03-31T13:10:59.642Z,74529.94
2023-03-31T13:13:27.089Z,74554.22
2023-03-31T13:15:56.853Z,74562.34
2023-03-31T13:18:24.745Z,74580.56
2023-03-31T13:21:06.369Z,74586.66
2023-03-31T13:23:37.883Z,74590.69
2023-03-31T13:26:05.967Z,74590.69
2023-03-31T13:28:42.563Z,74602.84
2023-03-31T13:31:11.479Z,74623.13
2023-03-31T13:33:47.436Z,74659.59
2023-03-31T13:36:20.071Z,74698.06
2023-03-31T13:39:16.868Z,74740.63
2023-03-31T13:41:46.780Z,74766.97
2023-03-31T13:44:38.498Z,74777.09
2023-03-31T13:47:38.406Z,74773.03
2023-03-31T13:50:31.465Z,74760.88
2023-03-31T13:53:08.230Z,74760.88
2023-03-31T13:55:55.392Z,74752.78
2023-03-31T13:58:59.556Z,74730.50
2023-03-31T14:01:48.549Z,74708.22
2023-03-31T14:04:34.789Z,74683.91
2023-03-31T14:07:22.001Z,74659.59
2023-03-31T14:09:52.568Z,74647.44
2023-03-31T14:12:37.425Z,74619.06
2023-03-31T14:15:07.067Z,74574.50
2023-03-31T14:17:38.496Z,74546.13
2023-03-31T14:20:27.202Z,74513.72
2023-03-31T14:23:00.381Z,74509.66
2023-03-31T14:26:06.231Z,74527.91
2023-03-31T14:28:52.622Z,74560.31
2023-03-31T14:31:34.808Z,74574.50
2023-03-31T14:34:28.958Z,74602.84
2023-03-31T14:37:00.341Z,74629.19
2023-03-31T14:39:32.451Z,74641.34
2023-03-31T14:42:04.407Z,74655.53
2023-03-31T14:44:33.250Z,74663.63
2023-03-31T14:47:00.752Z,74673.78
2023-03-31T14:49:38.812Z,74675.78
2023-03-31T14:52:16.686Z,74679.84
2023-03-31T14:54:47.928Z,74679.84
2023-03-31T14:57:20.724Z,74696.06
2023-03-31T14:59:51.737Z,74704.16
2023-03-31T15:02:33.108Z,74746.69
2023-03-31T15:05:09.802Z,74781.16
2023-03-31T15:07:37.646Z,74801.41
2023-03-31T15:10:06.638Z,74813.56
2023-03-31T15:12:34.344Z,74823.69
2023-03-31T15:15:06.882Z,74821.66
2023-03-31T15:17:43.341Z,74821.66
2023-03-31T15:20:29.512Z,74825.72
2023-03-31T15:22:59.399Z,74821.66
2023-03-31T15:25:37.313Z,74815.59
2023-03-31T15:28:10.022Z,74829.78
2023-03-31T15:30:37.777Z,74878.41
2023-03-31T15:33:18.887Z,74890.56
2023-03-31T15:35:47.164Z,74922.97
2023-03-31T15:38:18.851Z,74951.34
2023-03-31T15:40:54.667Z,74967.53
2023-03-31T15:43:32.443Z,74983.75
2023-03-31T15:46:03.099Z,74987.81
2023-03-31T15:48:35.790Z,74999.97
2023-03-31T15:51:17.785Z,74999.97
2023-03-31T15:53:48.400Z,75004.00
2023-03-31T15:56:33.485Z,75016.16
2023-03-31T15:59:05.532Z,75024.28
2023-03-31T16:01:35.474Z,75008.06
2023-03-31T16:04:08.691Z,75008.06
2023-03-31T16:06:50.937Z,74999.97
2023-03-31T16:09:28.704Z,74999.97
2023-03-31T16:12:02.145Z,74995.91
2023-03-31T16:14:33.352Z,74991.84
2023-03-31T16:17:06.382Z,74995.91
2023-03-31T16:19:42.874Z,75006.03
2023-03-31T16:22:15.848Z,75010.09
2023-03-31T16:24:43.324Z,75016.16
2023-03-31T16:27:10.568Z,75028.31
2023-03-31T16:29:38.414Z,75038.47
2023-03-31T16:32:14.192Z,75058.72
2023-03-31T16:35:03.154Z,75068.84
2023-03-31T16:37:30.494Z,75081.00
2023-03-31T16:39:58.154Z,75085.06
2023-03-31T16:42:26.012Z,75097.22
2023-03-31T16:50:13.705Z,75097.22
2023-03-31T16:52:40.594Z,75089.13
2023-03-31T16:55:08.579Z,75085.06
2023-03-31T16:57:35.489Z,75089.13
2023-03-31T17:00:02.771Z,75089.13
2023-03-31T17:02:29.964Z,75089.13
2023-03-31T17:05:06.082Z,75081.00
2023-03-31T17:07:39.537Z,75081.00
2023-03-31T17:10:07.519Z,75076.97
2023-03-31T17:12:34.726Z,75070.88
2023-03-31T17:15:02.048Z,75074.94
2023-03-31T17:17:29.795Z,75076.97
2023-03-31T17:19:59.256Z,75072.91
2023-03-31T17:22:26.474Z,75072.91
2023-03-31T17:24:58.345Z,75068.84
2023-03-31T17:27:27.370Z,75068.84
2023-03-31T17:29:55.006Z,75060.75
2023-03-31T17:32:22.846Z,75062.78
2023-03-31T17:34:50.588Z,75078.97
2023-03-31T17:37:19.244Z,75085.06
2023-03-31T17:39:46.850Z,75085.06
2023-03-31T17:42:14.527Z,75085.06
2023-03-31T17:44:42.328Z,75089.13
2023-03-31T17:47:10.179Z,75097.22
2023-03-31T17:49:38.427Z,75097.22
2023-03-31T17:52:07.075Z,75105.31
2023-03-31T17:54:37.063Z,75103.28
2023-03-31T17:57:04.727Z,75105.31
2023-03-31T17:59:31.995Z,75113.44
2023-03-31T18:01:59.234Z,75125.59
2023-03-31T18:04:27.230Z,75141.78
2023-03-31T18:06:54.974Z,75164.09
2023-03-31T18:09:22.211Z,75182.31
2023-03-31T18:11:49.314Z,75188.41
2023-03-31T18:14:17.597Z,75190.44
2023-03-31T18:16:44.976Z,75198.53
2023-03-31T18:19:12.216Z,75198.53
2023-03-31T18:21:39.190Z,75194.47
2023-03-31T18:24:06.641Z,75198.53
2023-03-31T18:26:33.689Z,75204.63
2023-03-31T18:29:01.169Z,75200.56
2023-03-31T18:31:28.144Z,75214.75
2023-03-31T18:33:55.416Z,75210.69
2023-03-31T18:36:23.299Z,75206.63
2023-03-31T18:38:51.480Z,75204.63
2023-03-31T18:41:19.317Z,75202.59
2023-03-31T18:43:56.314Z,75202.59
2023-03-31T18:46:23.278Z,75190.44
2023-03-31T18:48:51.356Z,75194.47
2023-03-31T18:51:18.368Z,75194.47
2023-03-31T18:53:45.599Z,75194.47
2023-03-31T18:56:13.081Z,75186.38
2023-03-31T18:58:40.366Z,75190.44
2023-03-31T19:01:07.462Z,75184.34
2023-03-31T19:03:34.872Z,75174.22
2023-03-31T19:06:05.901Z,75174.22
2023-03-31T19:08:33.963Z,75170.16
2023-03-31T19:11:10.363Z,75166.09
2023-03-31T19:13:39.176Z,75160.03
2023-03-31T19:16:06.907Z,75153.94
2023-03-31T19:18:34.481Z,75162.06
2023-03-31T19:21:02.194Z,75158.00
2023-03-31T19:23:30.949Z,75158.00
2023-03-31T19:25:58.342Z,75153.94
2023-03-31T19:28:27.362Z,75162.06
2023-03-31T19:30:56.726Z,75162.06
2023-03-31T19:33:25.580Z,75166.09
2023-03-31T19:35:53.016Z,75174.22
2023-03-31T19:38:22.004Z,75174.22
2023-03-31T19:40:49.647Z,75170.16
2023-03-31T19:43:21.042Z,75178.28
2023-03-31T19:45:53.467Z,75170.16
2023-03-31T19:48:21.456Z,75170.16
2023-03-31T19:50:53.371Z,75162.06
2023-03-31T19:53:21.770Z,75149.91
2023-03-31T19:56:00.165Z,75149.91
2023-03-31T19:58:28.314Z,75141.78
2023-03-31T20:00:56.436Z,75137.75
2023-03-31T20:03:26.125Z,75135.72
2023-03-31T20:06:02.290Z,75135.72
2023-03-31T20:08:29.584Z,75137.75
2023-03-31T20:11:05.339Z,75141.78
2023-03-31T20:13:35.772Z,75151.94
2023-03-31T20:16:20.817Z,75162.06
2023-03-31T20:18:59.441Z,75162.06
2023-03-31T20:21:28.339Z,75162.06
2023-03-31T20:23:56.496Z,75158.00
2023-03-31T20:26:26.387Z,75145.84
2023-03-31T20:28:55.985Z,75149.91
2023-03-31T20:31:25.839Z,75139.78
2023-03-31T20:33:54.120Z,75137.75
2023-03-31T20:36:32.163Z,75145.84
2023-03-31T20:39:00.843Z,75141.78
2023-03-31T20:41:28.999Z,75141.78
2023-03-31T20:43:56.872Z,75149.91
2023-03-31T20:46:24.201Z,75147.88
2023-03-31T20:48:57.289Z,75147.88
2023-03-31T20:51:33.517Z,75141.78
2023-03-31T20:54:01.844Z,75141.78
2023-03-31T20:56:32.083Z,75137.75
2023-03-31T20:58:59.890Z,75137.75
2023-03-31T21:01:30.071Z,75145.84
2023-03-31T21:04:00.990Z,75135.72
2023-03-31T21:06:38.036Z,75137.75
2023-03-31T21:09:05.790Z,75141.78
2023-03-31T21:11:33.228Z,75143.81
2023-03-31T21:14:01.326Z,75137.75
2023-03-31T21:16:28.629Z,75133.69
2023-03-31T21:18:55.978Z,75137.75
2023-03-31T21:21:24.964Z,75141.78
2023-03-31T21:23:52.986Z,75141.78
2023-03-31T21:26:21.900Z,75141.78
2023-03-31T21:28:54.149Z,75141.78
2023-03-31T21:31:24.264Z,75133.69
2023-03-31T21:33:52.995Z,75137.75
2023-03-31T21:36:22.653Z,75149.91
2023-03-31T21:38:52.252Z,75149.91
2023-03-31T21:41:22.967Z,75141.78
2023-03-31T21:43:50.974Z,75153.94
2023-03-31T21:46:20.734Z,75149.91
2023-03-31T21:48:49.011Z,75153.94
2023-03-31T21:51:17.790Z,75153.94
2023-03-31T21:53:44.917Z,75149.91
2023-03-31T21:56:12.377Z,75147.88
2023-03-31T21:58:39.516Z,75141.78
2023-03-31T22:01:07.787Z,75137.75
2023-03-31T22:03:35.723Z,75137.75
2023-03-31T22:06:05.093Z,75137.75
2023-03-31T22:08:32.015Z,75133.69
2023-03-31T22:11:00.576Z,75133.69
2023-03-31T22:13:29.492Z,75125.59
2023-03-31T22:15:57.058Z,75133.69
2023-03-31T22:18:24.019Z,75129.63
2023-03-31T22:20:51.450Z,75133.69
2023-03-31T22:23:20.819Z,75133.69
2023-03-31T22:25:49.129Z,75131.66
2023-03-31T22:28:16.926Z,75139.78
2023-03-31T22:30:44.436Z,75145.84
2023-03-31T22:33:11.495Z,75145.84
2023-03-31T22:35:38.817Z,75147.88
2023-03-31T22:38:06.637Z,75153.94
2023-03-31T22:40:35.122Z,75145.84
2023-03-31T22:43:02.194Z,75141.78
2023-03-31T22:45:29.544Z,75137.75
2023-03-31T22:47:56.653Z,75133.69
2023-03-31T22:50:24.396Z,75137.75
2023-03-31T22:52:52.162Z,75133.69
2023-03-31T22:55:19.377Z,75133.69
2023-03-31T22:57:46.751Z,75129.63
2023-03-31T23:00:14.647Z,75129.63
2023-03-31T23:02:42.278Z,75137.75
2023-03-31T23:05:10.533Z,75133.69
2023-03-31T23:07:38.025Z,75135.72
2023-03-31T23:10:06.418Z,75129.63
2023-03-31T23:12:33.538Z,75125.59
2023-03-31T23:15:01.181Z,75129.63
2023-03-31T23:17:28.512Z,75133.69
2023-03-31T23:19:55.652Z,75129.63
2023-03-31T23:22:22.629Z,75127.63
2023-03-31T23:24:49.913Z,75129.63
2023-03-31T23:27:16.795Z,75129.63
2023-03-31T23:29:44.836Z,75125.59
2023-03-31T23:32:12.637Z,75121.53
2023-03-31T23:34:43.597Z,75121.53
2023-03-31T23:37:12.037Z,75125.59
2023-03-31T23:39:39.592Z,75129.63
2023-03-31T23:42:07.668Z,75133.69
2023-03-31T23:44:37.870Z,75127.63
2023-03-31T23:47:05.618Z,75125.59
2023-03-31T23:49:33.402Z,75121.53
2023-03-31T23:52:00.434Z,75117.47
2023-03-31T23:54:27.697Z,75125.59
2023-03-31T23:56:54.787Z,75125.59
2023-03-31T23:59:22.050Z,75125.59
